sensor_id;sensor_type;location;lat;lon;timestamp;pressure;altitude;pressure_sealevel;temperature;humidity
30682;BME280;17439;48.092;11.842;2024-01-11T00:00:36;96218.03;;;-1.99;64.93
30682;BME280;17439;48.092;11.842;2024-01-11T00:03:03;96222.56;;;-2.00;64.89
30682;BME280;17439;48.092;11.842;2024-01-11T00:05:30;96211.94;;;-2.00;64.96
30682;BME280;17439;48.092;11.842;2024-01-11T00:07:57;96212.72;;;-1.99;65.11
30682;BME280;17439;48.092;11.842;2024-01-11T00:10:24;96217.84;;;-1.98;65.17
30682;BME280;17439;48.092;11.842;2024-01-11T00:12:50;96215.19;;;-1.98;65.01
30682;BME280;17439;48.092;11.842;2024-01-11T00:15:17;96223.16;;;-1.98;64.70
30682;BME280;17439;48.092;11.842;2024-01-11T00:17:44;96221.50;;;-1.99;64.92
30682;BME280;17439;48.092;11.842;2024-01-11T00:20:11;96222.56;;;-2.00;64.80
30682;BME280;17439;48.092;11.842;2024-01-11T00:22:38;96230.53;;;-2.00;64.92
30682;BME280;17439;48.092;11.842;2024-01-11T00:25:05;96228.69;;;-1.99;64.69
30682;BME280;17439;48.092;11.842;2024-01-11T00:27:32;96227.03;;;-2.01;64.50
30682;BME280;17439;48.092;11.842;2024-01-11T00:29:59;96229.69;;;-2.01;64.45
30682;BME280;17439;48.092;11.842;2024-01-11T00:32:25;96227.25;;;-2.02;64.56
30682;BME280;17439;48.092;11.842;2024-01-11T00:34:52;96228.09;;;-2.02;64.39
30682;BME280;17439;48.092;11.842;2024-01-11T00:37:19;96224.59;;;-2.02;64.10
30682;BME280;17439;48.092;11.842;2024-01-11T00:39:46;96226.66;;;-2.04;63.91
30682;BME280;17439;48.092;11.842;2024-01-11T00:42:13;96225.84;;;-2.05;63.89
30682;BME280;17439;48.092;11.842;2024-01-11T00:44:39;96224.63;;;-2.09;63.86
30682;BME280;17439;48.092;11.842;2024-01-11T00:47:06;96225.88;;;-2.11;63.66
30682;BME280;17439;48.092;11.842;2024-01-11T00:49:33;96220.56;;;-2.11;63.28
30682;BME280;17439;48.092;11.842;2024-01-11T00:52:00;96217.28;;;-2.13;63.28
30682;BME280;17439;48.092;11.842;2024-01-11T00:54:26;96226.72;;;-2.17;63.31
30682;BME280;17439;48.092;11.842;2024-01-11T00:56:53;96223.91;;;-2.23;63.51
30682;BME280;17439;48.092;11.842;2024-01-11T00:59:20;96226.97;;;-2.26;63.41
30682;BME280;17439;48.092;11.842;2024-01-11T01:01:50;96229.00;;;-2.28;63.60
30682;BME280;17439;48.092;11.842;2024-01-11T01:04:16;96233.50;;;-2.28;63.37
30682;BME280;17439;48.092;11.842;2024-01-11T01:06:43;96231.28;;;-2.31;63.34
30682;BME280;17439;48.092;11.842;2024-01-11T01:09:10;96232.50;;;-2.34;63.73
30682;BME280;17439;48.092;11.842;2024-01-11T01:11:37;96238.84;;;-2.35;63.70
30682;BME280;17439;48.092;11.842;2024-01-11T01:14:04;96237.41;;;-2.38;63.91
30682;BME280;17439;48.092;11.842;2024-01-11T01:16:31;96238.22;;;-2.37;64.14
30682;BME280;17439;48.092;11.842;2024-01-11T01:18:58;96248.84;;;-2.37;63.87
30682;BME280;17439;48.092;11.842;2024-01-11T01:21:25;96247.25;;;-2.38;63.88
30682;BME280;17439;48.092;11.842;2024-01-11T01:23:52;96245.59;;;-2.39;64.06
30682;BME280;17439;48.092;11.842;2024-01-11T01:26:19;96239.06;;;-2.37;63.99
30682;BME280;17439;48.092;11.842;2024-01-11T01:28:45;96237.41;;;-2.38;63.96
30682;BME280;17439;48.092;11.842;2024-01-11T01:31:12;96240.28;;;-2.39;64.03
30682;BME280;17439;48.092;11.842;2024-01-11T01:33:40;96245.81;;;-2.41;64.46
30682;BME280;17439;48.092;11.842;2024-01-11T01:36:10;96240.50;;;-2.41;64.28
30682;BME280;17439;48.092;11.842;2024-01-11T01:38:37;96248.25;;;-2.39;64.55
30682;BME280;17439;48.092;11.842;2024-01-11T01:41:04;96257.66;;;-2.37;64.54
30682;BME280;17439;48.092;11.842;2024-01-11T01:43:31;96252.56;;;-2.38;64.50
30682;BME280;17439;48.092;11.842;2024-01-11T01:45:58;96253.34;;;-2.38;64.67
30682;BME280;17439;48.092;11.842;2024-01-11T01:48:26;96256.81;;;-2.37;64.79
30682;BME280;17439;48.092;11.842;2024-01-11T01:50:54;96263.78;;;-2.36;64.69
30682;BME280;17439;48.092;11.842;2024-01-11T01:53:21;96266.84;;;-2.39;64.35
30682;BME280;17439;48.092;11.842;2024-01-11T01:55:50;96268.28;;;-2.37;64.53
30682;BME280;17439;48.092;11.842;2024-01-11T01:58:19;96269.88;;;-2.35;64.61
30682;BME280;17439;48.092;11.842;2024-01-11T02:00:47;96264.41;;;-2.41;64.22
30682;BME280;17439;48.092;11.842;2024-01-11T02:03:15;96269.09;;;-2.36;64.78
30682;BME280;17439;48.092;11.842;2024-01-11T02:05:42;96268.88;;;-2.34;64.66
30682;BME280;17439;48.092;11.842;2024-01-11T02:08:15;96275.00;;;-2.34;64.30
30682;BME280;17439;48.092;11.842;2024-01-11T02:10:43;96268.88;;;-2.34;64.47
30682;BME280;17439;48.092;11.842;2024-01-11T02:13:11;96261.72;;;-2.34;64.33
30682;BME280;17439;48.092;11.842;2024-01-11T02:15:37;96269.69;;;-2.34;64.27
30682;BME280;17439;48.092;11.842;2024-01-11T02:18:04;96275.84;;;-2.33;63.84
30682;BME280;17439;48.092;11.842;2024-01-11T02:20:31;96270.72;;;-2.35;63.64
30682;BME280;17439;48.092;11.842;2024-01-11T02:23:03;96266.84;;;-2.39;63.73
30682;BME280;17439;48.092;11.842;2024-01-11T02:25:31;96265.22;;;-2.40;64.02
30682;BME280;17439;48.092;11.842;2024-01-11T02:27:58;96260.34;;;-2.43;64.00
30682;BME280;17439;48.092;11.842;2024-01-11T02:30:25;96262.16;;;-2.44;63.94
30682;BME280;17439;48.092;11.842;2024-01-11T02:32:52;96261.56;;;-2.46;64.12
30682;BME280;17439;48.092;11.842;2024-01-11T02:35:20;96257.25;;;-2.47;64.32
30682;BME280;17439;48.092;11.842;2024-01-11T02:37:48;96260.75;;;-2.46;64.51
30682;BME280;17439;48.092;11.842;2024-01-11T02:40:15;96250.34;;;-2.48;64.68
30682;BME280;17439;48.092;11.842;2024-01-11T02:42:42;96251.94;;;-2.47;64.84
30682;BME280;17439;48.092;11.842;2024-01-11T02:45:10;96249.09;;;-2.45;64.76
30682;BME280;17439;48.092;11.842;2024-01-11T02:47:38;96254.19;;;-2.44;64.86
30682;BME280;17439;48.092;11.842;2024-01-11T02:50:06;96255.63;;;-2.41;64.92
30682;BME280;17439;48.092;11.842;2024-01-11T02:52:34;96247.88;;;-2.43;64.73
30682;BME280;17439;48.092;11.842;2024-01-11T02:55:00;96244.41;;;-2.43;64.77
30682;BME280;17439;48.092;11.842;2024-01-11T02:57:27;96238.03;;;-2.42;64.70
30682;BME280;17439;48.092;11.842;2024-01-11T02:59:54;96233.78;;;-2.43;64.56
30682;BME280;17439;48.092;11.842;2024-01-11T03:02:21;96235.59;;;-2.44;64.40
30682;BME280;17439;48.092;11.842;2024-01-11T03:04:48;96223.38;;;-2.45;64.47
30682;BME280;17439;48.092;11.842;2024-01-11T03:07:14;96228.03;;;-2.47;64.40
30682;BME280;17439;48.092;11.842;2024-01-11T03:09:41;96229.91;;;-2.47;64.54
30682;BME280;17439;48.092;11.842;2024-01-11T03:12:08;96227.66;;;-2.50;64.60
30682;BME280;17439;48.092;11.842;2024-01-11T03:14:35;96218.25;;;-2.53;64.38
30682;BME280;17439;48.092;11.842;2024-01-11T03:17:02;96217.44;;;-2.53;64.76
30682;BME280;17439;48.092;11.842;2024-01-11T03:19:29;96228.06;;;-2.53;64.58
30682;BME280;17439;48.092;11.842;2024-01-11T03:21:55;96221.13;;;-2.55;64.81
30682;BME280;17439;48.092;11.842;2024-01-11T03:24:22;96222.16;;;-2.56;64.84
30682;BME280;17439;48.092;11.842;2024-01-11T03:26:49;96225.63;;;-2.55;64.90
30682;BME280;17439;48.092;11.842;2024-01-11T03:29:16;96222.16;;;-2.56;64.75
30682;BME280;17439;48.092;11.842;2024-01-11T03:31:42;96219.50;;;-2.56;64.80
30682;BME280;17439;48.092;11.842;2024-01-11T03:34:09;96221.97;;;-2.54;64.82
30682;BME280;17439;48.092;11.842;2024-01-11T03:36:36;96215.00;;;-2.55;64.89
30682;BME280;17439;48.092;11.842;2024-01-11T03:39:03;96210.50;;;-2.55;65.11
30682;BME280;17439;48.092;11.842;2024-01-11T03:41:29;96210.09;;;-2.51;65.03
30682;BME280;17439;48.092;11.842;2024-01-11T03:43:56;96202.13;;;-2.51;64.94
30682;BME280;17439;48.092;11.842;2024-01-11T03:46:23;96205.59;;;-2.51;64.92
30682;BME280;17439;48.092;11.842;2024-01-11T03:48:50;96199.47;;;-2.51;64.70
30682;BME280;17439;48.092;11.842;2024-01-11T03:51:17;96201.09;;;-2.50;64.91
30682;BME280;17439;48.092;11.842;2024-01-11T03:53:43;96202.75;;;-2.49;64.89
30682;BME280;17439;48.092;11.842;2024-01-11T03:56:10;96201.91;;;-2.50;65.04
30682;BME280;17439;48.092;11.842;2024-01-11T03:58:37;96196.38;;;-2.48;65.21
30682;BME280;17439;48.092;11.842;2024-01-11T04:01:04;96191.69;;;-2.46;65.06
30682;BME280;17439;48.092;11.842;2024-01-11T04:03:31;96185.56;;;-2.47;64.79
30682;BME280;17439;48.092;11.842;2024-01-11T04:05:57;96185.34;;;-2.45;64.90
30682;BME280;17439;48.092;11.842;2024-01-11T04:08:24;96175.56;;;-2.45;64.99
30682;BME280;17439;48.092;11.842;2024-01-11T04:10:51;96177.16;;;-2.44;64.96
30682;BME280;17439;48.092;11.842;2024-01-11T04:13:17;96179.63;;;-2.42;65.05
30682;BME280;17439;48.092;11.842;2024-01-11T04:15:45;96184.72;;;-2.41;65.20
30682;BME280;17439;48.092;11.842;2024-01-11T04:18:12;96187.16;;;-2.39;65.31
30682;BME280;17439;48.092;11.842;2024-01-11T04:20:39;96182.44;;;-2.37;65.02
30682;BME280;17439;48.092;11.842;2024-01-11T04:23:06;96196.34;;;-2.35;64.69
30682;BME280;17439;48.092;11.842;2024-01-11T04:25:33;96203.06;;;-2.32;64.56
30682;BME280;17439;48.092;11.842;2024-01-11T04:27:59;96202.25;;;-2.33;64.41
30682;BME280;17439;48.092;11.842;2024-01-11T04:30:26;96194.50;;;-2.34;64.38
30682;BME280;17439;48.092;11.842;2024-01-11T04:32:53;96206.13;;;-2.35;64.46
30682;BME280;17439;48.092;11.842;2024-01-11T04:35:20;96214.13;;;-2.35;64.55
30682;BME280;17439;48.092;11.842;2024-01-11T04:37:47;96208.00;;;-2.36;64.43
30682;BME280;17439;48.092;11.842;2024-01-11T04:40:14;96215.53;;;-2.33;64.55
30682;BME280;17439;48.092;11.842;2024-01-11T04:42:40;96219.63;;;-2.30;63.76
30682;BME280;17439;48.092;11.842;2024-01-11T04:45:07;96225.16;;;-2.32;63.54
30682;BME280;17439;48.092;11.842;2024-01-11T04:47:34;96221.06;;;-2.34;63.79
30682;BME280;17439;48.092;11.842;2024-01-11T04:50:01;96221.47;;;-2.38;63.98
30682;BME280;17439;48.092;11.842;2024-01-11T04:52:28;96212.13;;;-2.40;64.20
30682;BME280;17439;48.092;11.842;2024-01-11T04:54:55;96211.28;;;-2.41;64.26
30682;BME280;17439;48.092;11.842;2024-01-11T04:57:21;96206.81;;;-2.40;64.27
30682;BME280;17439;48.092;11.842;2024-01-11T04:59:48;96210.47;;;-2.41;64.25
30682;BME280;17439;48.092;11.842;2024-01-11T05:02:15;96218.44;;;-2.41;64.53
30682;BME280;17439;48.092;11.842;2024-01-11T05:04:42;96216.59;;;-2.41;64.56
30682;BME280;17439;48.092;11.842;2024-01-11T05:07:08;96215.56;;;-2.40;64.66
30682;BME280;17439;48.092;11.842;2024-01-11T05:09:35;96218.22;;;-2.40;64.53
30682;BME280;17439;48.092;11.842;2024-01-11T05:12:02;96215.38;;;-2.38;64.43
30682;BME280;17439;48.092;11.842;2024-01-11T05:14:29;96207.59;;;-2.40;64.17
30682;BME280;17439;48.092;11.842;2024-01-11T05:16:56;96217.63;;;-2.42;64.31
30682;BME280;17439;48.092;11.842;2024-01-11T05:19:23;96212.53;;;-2.43;64.57
30682;BME280;17439;48.092;11.842;2024-01-11T05:21:49;96217.84;;;-2.43;64.55
30682;BME280;17439;48.092;11.842;2024-01-11T05:24:16;96214.16;;;-2.42;64.78
30682;BME280;17439;48.092;11.842;2024-01-11T05:26:43;96208.84;;;-2.42;64.87
30682;BME280;17439;48.092;11.842;2024-01-11T05:29:10;96204.34;;;-2.42;64.68
30682;BME280;17439;48.092;11.842;2024-01-11T05:31:36;96205.16;;;-2.41;64.84
30682;BME280;17439;48.092;11.842;2024-01-11T05:34:03;96207.81;;;-2.41;64.87
30682;BME280;17439;48.092;11.842;2024-01-11T05:36:30;96212.91;;;-2.40;64.65
30682;BME280;17439;48.092;11.842;2024-01-11T05:38:57;96217.44;;;-2.40;64.58
30682;BME280;17439;48.092;11.842;2024-01-11T05:41:24;96226.41;;;-2.41;64.52
30682;BME280;17439;48.092;11.842;2024-01-11T05:43:51;96220.50;;;-2.43;64.56
30682;BME280;17439;48.092;11.842;2024-01-11T05:46:17;96224.16;;;-2.44;64.29
30682;BME280;17439;48.092;11.842;2024-01-11T05:48:44;96228.03;;;-2.47;64.52
30682;BME280;17439;48.092;11.842;2024-01-11T05:51:11;96224.78;;;-2.49;64.36
30682;BME280;17439;48.092;11.842;2024-01-11T05:53:38;96230.53;;;-2.52;64.50
30682;BME280;17439;48.092;11.842;2024-01-11T05:56:10;96231.97;;;-2.56;63.85
30682;BME280;17439;48.092;11.842;2024-01-11T05:58:39;96239.53;;;-2.60;64.35
30682;BME280;17439;48.092;11.842;2024-01-11T06:01:06;96246.88;;;-2.62;64.76
30682;BME280;17439;48.092;11.842;2024-01-11T06:03:33;96242.00;;;-2.65;64.65
30682;BME280;17439;48.092;11.842;2024-01-11T06:06:00;96244.06;;;-2.67;64.71
30682;BME280;17439;48.092;11.842;2024-01-11T06:08:29;96242.63;;;-2.69;64.80
30682;BME280;17439;48.092;11.842;2024-01-11T06:10:56;96252.44;;;-2.70;64.70
30682;BME280;17439;48.092;11.842;2024-01-11T06:13:23;96249.16;;;-2.72;64.95
30682;BME280;17439;48.092;11.842;2024-01-11T06:15:49;96247.31;;;-2.71;65.06
30682;BME280;17439;48.092;11.842;2024-01-11T06:18:16;96243.88;;;-2.72;64.91
30682;BME280;17439;48.092;11.842;2024-01-11T06:20:43;96255.09;;;-2.70;65.08
30682;BME280;17439;48.092;11.842;2024-01-11T06:23:10;96260.19;;;-2.68;64.72
30682;BME280;17439;48.092;11.842;2024-01-11T06:25:37;96261.78;;;-2.67;64.66
30682;BME280;17439;48.092;11.842;2024-01-11T06:28:04;96267.94;;;-2.67;64.69
30682;BME280;17439;48.092;11.842;2024-01-11T06:30:31;96269.56;;;-2.66;64.94
30682;BME280;17439;48.092;11.842;2024-01-11T06:32:57;96262.44;;;-2.65;64.84
30682;BME280;17439;48.092;11.842;2024-01-11T06:35:24;96275.69;;;-2.65;64.62
30682;BME280;17439;48.092;11.842;2024-01-11T06:37:51;96276.50;;;-2.65;64.42
30682;BME280;17439;48.092;11.842;2024-01-11T06:40:18;96276.50;;;-2.65;64.16
30682;BME280;17439;48.092;11.842;2024-01-11T06:42:45;96282.03;;;-2.66;64.22
30682;BME280;17439;48.092;11.842;2024-01-11T06:45:11;96290.19;;;-2.68;64.14
30682;BME280;17439;48.092;11.842;2024-01-11T06:47:38;96293.84;;;-2.69;64.40
30682;BME280;17439;48.092;11.842;2024-01-11T06:50:06;96286.09;;;-2.70;64.41
30682;BME280;17439;48.092;11.842;2024-01-11T06:52:33;96295.91;;;-2.71;64.60
30682;BME280;17439;48.092;11.842;2024-01-11T06:54:59;96292.25;;;-2.70;64.57
30682;BME280;17439;48.092;11.842;2024-01-11T06:57:26;96301.22;;;-2.71;64.50
30682;BME280;17439;48.092;11.842;2024-01-11T06:59:53;96294.31;;;-2.72;64.54
30682;BME280;17439;48.092;11.842;2024-01-11T07:02:20;96300.63;;;-2.73;64.45
30682;BME280;17439;48.092;11.842;2024-01-11T07:04:47;96293.66;;;-2.74;64.38
30682;BME280;17439;48.092;11.842;2024-01-11T07:07:13;96288.56;;;-2.76;64.44
30682;BME280;17439;48.092;11.842;2024-01-11T07:09:40;96295.94;;;-2.78;64.48
30682;BME280;17439;48.092;11.842;2024-01-11T07:12:07;96304.09;;;-2.79;64.50
30682;BME280;17439;48.092;11.842;2024-01-11T07:14:34;96305.09;;;-2.80;64.60
30682;BME280;17439;48.092;11.842;2024-01-11T07:17:00;96310.41;;;-2.80;64.86
30682;BME280;17439;48.092;11.842;2024-01-11T07:19:27;96301.25;;;-2.78;64.88
30682;BME280;17439;48.092;11.842;2024-01-11T07:21:54;96303.88;;;-2.78;65.12
30682;BME280;17439;48.092;11.842;2024-01-11T07:24:21;96301.03;;;-2.76;65.00
30682;BME280;17439;48.092;11.842;2024-01-11T07:26:48;96304.28;;;-2.74;65.14
30682;BME280;17439;48.092;11.842;2024-01-11T07:29:14;96297.97;;;-2.73;65.43
30682;BME280;17439;48.092;11.842;2024-01-11T07:31:41;96311.03;;;-2.71;65.42
30682;BME280;17439;48.092;11.842;2024-01-11T07:34:08;96305.53;;;-2.70;65.53
30682;BME280;17439;48.092;11.842;2024-01-11T07:36:35;96296.50;;;-2.69;65.36
30682;BME280;17439;48.092;11.842;2024-01-11T07:39:02;96298.16;;;-2.68;65.34
30682;BME280;17439;48.092;11.842;2024-01-11T07:41:28;96297.16;;;-2.67;65.32
30682;BME280;17439;48.092;11.842;2024-01-11T07:43:55;96302.03;;;-2.64;65.45
30682;BME280;17439;48.092;11.842;2024-01-11T07:46:22;96295.91;;;-2.64;65.23
30682;BME280;17439;48.092;11.842;2024-01-11T07:49:04;96303.44;;;-2.61;65.63
30682;BME280;17439;48.092;11.842;2024-01-11T07:51:31;96304.88;;;-2.59;65.82
30682;BME280;17439;48.092;11.842;2024-01-11T07:53:58;96310.38;;;-2.53;65.93
30682;BME280;17439;48.092;11.842;2024-01-11T07:56:26;96314.88;;;-2.47;65.80
30682;BME280;17439;48.092;11.842;2024-01-11T07:58:53;96310.78;;;-2.43;65.85
30682;BME280;17439;48.092;11.842;2024-01-11T08:01:19;96310.19;;;-2.39;65.84
30682;BME280;17439;48.092;11.842;2024-01-11T08:03:46;96305.25;;;-2.35;65.88
30682;BME280;17439;48.092;11.842;2024-01-11T08:06:13;96317.91;;;-2.30;66.16
30682;BME280;17439;48.092;11.842;2024-01-11T08:08:40;96313.81;;;-2.26;66.19
30682;BME280;17439;48.092;11.842;2024-01-11T08:11:07;96306.03;;;-2.21;65.92
30682;BME280;17439;48.092;11.842;2024-01-11T08:13:34;96299.47;;;-2.19;65.92
30682;BME280;17439;48.092;11.842;2024-01-11T08:16:01;96309.28;;;-2.12;66.04
30682;BME280;17439;48.092;11.842;2024-01-11T08:18:29;96304.97;;;-2.07;66.47
30682;BME280;17439;48.092;11.842;2024-01-11T08:20:56;96313.72;;;-1.99;66.44
30682;BME280;17439;48.092;11.842;2024-01-11T08:23:23;96312.88;;;-1.93;66.38
30682;BME280;17439;48.092;11.842;2024-01-11T08:25:50;96309.19;;;-1.86;66.63
30682;BME280;17439;48.092;11.842;2024-01-11T08:28:16;96309.16;;;-1.79;66.37
30682;BME280;17439;48.092;11.842;2024-01-11T08:30:43;96319.75;;;-1.72;66.48
30682;BME280;17439;48.092;11.842;2024-01-11T08:33:10;96332.00;;;-1.65;66.29
30682;BME280;17439;48.092;11.842;2024-01-11T08:35:37;96325.00;;;-1.59;66.19
30682;BME280;17439;48.092;11.842;2024-01-11T08:38:04;96335.41;;;-1.51;66.33
30682;BME280;17439;48.092;11.842;2024-01-11T08:40:30;96324.94;;;-1.46;66.55
30682;BME280;17439;48.092;11.842;2024-01-11T08:42:57;96321.44;;;-1.39;66.23
30682;BME280;17439;48.092;11.842;2024-01-11T08:45:24;96328.56;;;-1.33;66.62
30682;BME280;17439;48.092;11.842;2024-01-11T08:47:50;96331.38;;;-1.28;66.66
30682;BME280;17439;48.092;11.842;2024-01-11T08:50:17;96342.81;;;-1.21;66.52
30682;BME280;17439;48.092;11.842;2024-01-11T08:52:49;96361.56;;;-1.09;66.58
30682;BME280;17439;48.092;11.842;2024-01-11T08:55:16;96360.50;;;-1.01;65.64
30682;BME280;17439;48.092;11.842;2024-01-11T08:57:42;96371.09;;;-0.95;65.06
30682;BME280;17439;48.092;11.842;2024-01-11T09:00:10;96369.84;;;-0.92;64.65
30682;BME280;17439;48.092;11.842;2024-01-11T09:02:37;96369.03;;;-0.93;64.60
30682;BME280;17439;48.092;11.842;2024-01-11T09:05:04;96362.09;;;-0.94;64.83
30682;BME280;17439;48.092;11.842;2024-01-11T09:07:34;96368.44;;;-0.95;64.69
30682;BME280;17439;48.092;11.842;2024-01-11T09:10:01;96381.53;;;-0.93;64.04
30682;BME280;17439;48.092;11.842;2024-01-11T09:12:28;96389.50;;;-0.93;63.44
30682;BME280;17439;48.092;11.842;2024-01-11T09:14:54;96390.75;;;-0.96;63.58
30682;BME280;17439;48.092;11.842;2024-01-11T09:17:21;96392.59;;;-0.96;62.61
30682;BME280;17439;48.092;11.842;2024-01-11T09:19:48;96393.03;;;-0.99;62.44
30682;BME280;17439;48.092;11.842;2024-01-11T09:22:16;96382.44;;;-1.06;62.45
30682;BME280;17439;48.092;11.842;2024-01-11T09:24:43;96376.31;;;-1.13;62.69
30682;BME280;17439;48.092;11.842;2024-01-11T09:27:09;96365.34;;;-1.23;62.72
30682;BME280;17439;48.092;11.842;2024-01-11T09:29:36;96376.03;;;-1.30;63.09
30682;BME280;17439;48.092;11.842;2024-01-11T09:32:03;96387.09;;;-1.33;62.98
30682;BME280;17439;48.092;11.842;2024-01-11T09:34:30;96396.28;;;-1.36;62.60
30682;BME280;17439;48.092;11.842;2024-01-11T09:36:57;96393.25;;;-1.39;62.07
30682;BME280;17439;48.092;11.842;2024-01-11T09:39:24;96392.03;;;-1.43;61.57
30682;BME280;17439;48.092;11.842;2024-01-11T09:41:55;96386.16;;;-1.52;62.00
30682;BME280;17439;48.092;11.842;2024-01-11T09:44:25;96384.75;;;-1.61;62.58
30682;BME280;17439;48.092;11.842;2024-01-11T09:46:53;96384.56;;;-1.67;63.18
30682;BME280;17439;48.092;11.842;2024-01-11T09:49:22;96377.81;;;-1.69;63.56
30682;BME280;17439;48.092;11.842;2024-01-11T09:51:49;96379.47;;;-1.68;64.45
30682;BME280;17439;48.092;11.842;2024-01-11T09:54:19;96389.69;;;-1.65;64.64
30682;BME280;17439;48.092;11.842;2024-01-11T09:56:45;96383.94;;;-1.62;65.03
30682;BME280;17439;48.092;11.842;2024-01-11T09:59:13;96370.81;;;-1.57;65.24
30682;BME280;17439;48.092;11.842;2024-01-11T10:01:40;96363.84;;;-1.58;63.74
30682;BME280;17439;48.092;11.842;2024-01-11T10:04:07;96365.25;;;-1.49;65.48
30682;BME280;17439;48.092;11.842;2024-01-11T10:06:38;96367.28;;;-1.44;64.88
30682;BME280;17439;48.092;11.842;2024-01-11T10:09:05;96344.78;;;-1.41;65.33
30682;BME280;17439;48.092;11.842;2024-01-11T10:11:31;96351.06;;;-1.36;65.39
30682;BME280;17439;48.092;11.842;2024-01-11T10:13:58;96357.81;;;-1.33;65.42
30682;BME280;17439;48.092;11.842;2024-01-11T10:16:25;96337.50;;;-1.28;65.69
30682;BME280;17439;48.092;11.842;2024-01-11T10:18:54;96349.97;;;-1.21;64.94
30682;BME280;17439;48.092;11.842;2024-01-11T10:21:21;96345.44;;;-1.14;65.82
30682;BME280;17439;48.092;11.842;2024-01-11T10:23:51;96341.06;;;-1.08;65.07
30682;BME280;17439;48.092;11.842;2024-01-11T10:26:18;96328.56;;;-1.01;65.96
30682;BME280;17439;48.092;11.842;2024-01-11T10:28:46;96326.63;;;-0.94;66.02
30682;BME280;17439;48.092;11.842;2024-01-11T10:31:13;96329.88;;;-0.85;66.10
30682;BME280;17439;48.092;11.842;2024-01-11T10:33:40;96332.25;;;-0.77;66.33
30682;BME280;17439;48.092;11.842;2024-01-11T10:36:07;96329.69;;;-0.65;66.09
30682;BME280;17439;48.092;11.842;2024-01-11T10:38:37;96326.16;;;-0.59;65.35
30682;BME280;17439;48.092;11.842;2024-01-11T10:41:06;96314.41;;;-0.51;65.26
30682;BME280;17439;48.092;11.842;2024-01-11T10:43:37;96314.78;;;-0.48;64.68
30682;BME280;17439;48.092;11.842;2024-01-11T10:46:05;96304.88;;;-0.41;65.25
30682;BME280;17439;48.092;11.842;2024-01-11T10:48:33;96308.75;;;-0.37;64.80
30682;BME280;17439;48.092;11.842;2024-01-11T10:51:08;96302.38;;;-0.35;64.05
30682;BME280;17439;48.092;11.842;2024-01-11T10:53:43;96309.13;;;-0.33;64.04
30682;BME280;17439;48.092;11.842;2024-01-11T10:56:11;96320.72;;;-0.27;64.19
30682;BME280;17439;48.092;11.842;2024-01-11T10:58:44;96321.56;;;-0.27;63.84
30682;BME280;17439;48.092;11.842;2024-01-11T11:01:12;96336.47;;;-0.19;63.37
30682;BME280;17439;48.092;11.842;2024-01-11T11:03:39;96335.03;;;-0.22;62.93
30682;BME280;17439;48.092;11.842;2024-01-11T11:06:07;96320.28;;;-0.24;62.01
30682;BME280;17439;48.092;11.842;2024-01-11T11:08:36;96313.38;;;-0.32;62.37
30682;BME280;17439;48.092;11.842;2024-01-11T11:11:04;96308.53;;;-0.35;62.20
30682;BME280;17439;48.092;11.842;2024-01-11T11:13:32;96304.66;;;-0.39;62.05
30682;BME280;17439;48.092;11.842;2024-01-11T11:15:59;96303.25;;;-0.42;62.06
30682;BME280;17439;48.092;11.842;2024-01-11T11:18:28;96302.06;;;-0.46;62.37
30682;BME280;17439;48.092;11.842;2024-01-11T11:20:55;96306.41;;;-0.51;62.72
30682;BME280;17439;48.092;11.842;2024-01-11T11:23:21;96306.84;;;-0.55;62.97
30682;BME280;17439;48.092;11.842;2024-01-11T11:25:49;96303.59;;;-0.57;63.35
30682;BME280;17439;48.092;11.842;2024-01-11T11:28:17;96306.03;;;-0.55;63.62
30682;BME280;17439;48.092;11.842;2024-01-11T11:30:47;96313.59;;;-0.52;63.51
30682;BME280;17439;48.092;11.842;2024-01-11T11:33:19;96319.50;;;-0.50;63.22
30682;BME280;17439;48.092;11.842;2024-01-11T11:35:47;96324.63;;;-0.48;63.57
30682;BME280;17439;48.092;11.842;2024-01-11T11:38:21;96324.84;;;-0.50;63.52
30682;BME280;17439;48.092;11.842;2024-01-11T11:40:51;96314.34;;;-0.45;63.11
30682;BME280;17439;48.092;11.842;2024-01-11T11:43:19;96299.41;;;-0.46;63.48
30682;BME280;17439;48.092;11.842;2024-01-11T11:45:48;96301.25;;;-0.46;63.50
30682;BME280;17439;48.092;11.842;2024-01-11T11:51:07;96307.19;;;-0.44;63.11
30682;BME280;17439;48.092;11.842;2024-01-11T11:53:36;96296.31;;;-0.43;64.07
30682;BME280;17439;48.092;11.842;2024-01-11T11:56:04;96304.06;;;-0.41;64.39
30682;BME280;17439;48.092;11.842;2024-01-11T11:58:32;96306.53;;;-0.40;64.43
30682;BME280;17439;48.092;11.842;2024-01-11T12:00:59;96303.88;;;-0.40;64.07
30682;BME280;17439;48.092;11.842;2024-01-11T12:03:29;96304.81;;;-0.34;64.03
30682;BME280;17439;48.092;11.842;2024-01-11T12:05:57;96303.72;;;-0.26;63.23
30682;BME280;17439;48.092;11.842;2024-01-11T12:08:24;96314.97;;;-0.24;62.86
30682;BME280;17439;48.092;11.842;2024-01-11T12:10:51;96313.34;;;-0.25;62.19
30682;BME280;17439;48.092;11.842;2024-01-11T12:13:18;96315.84;;;-0.30;62.68
30682;BME280;17439;48.092;11.842;2024-01-11T12:15:46;96316.28;;;-0.33;63.18
30682;BME280;17439;48.092;11.842;2024-01-11T12:18:13;96320.00;;;-0.34;63.49
30682;BME280;17439;48.092;11.842;2024-01-11T12:20:40;96315.84;;;-0.30;62.61
30682;BME280;17439;48.092;11.842;2024-01-11T12:23:07;96302.72;;;-0.32;61.90
30682;BME280;17439;48.092;11.842;2024-01-11T12:25:35;96293.78;;;-0.38;62.37
30682;BME280;17439;48.092;11.842;2024-01-11T12:28:02;96297.09;;;-0.42;62.87
30682;BME280;17439;48.092;11.842;2024-01-11T12:30:29;96287.47;;;-0.43;63.43
30682;BME280;17439;48.092;11.842;2024-01-11T12:32:56;96289.34;;;-0.44;63.56
30682;BME280;17439;48.092;11.842;2024-01-11T12:35:23;96289.34;;;-0.44;63.67
30682;BME280;17439;48.092;11.842;2024-01-11T12:38:08;96289.69;;;-0.40;62.30
30682;BME280;17439;48.092;11.842;2024-01-11T12:40:36;96283.13;;;-0.38;64.52
30682;BME280;17439;48.092;11.842;2024-01-11T12:43:04;96290.69;;;-0.34;64.40
30682;BME280;17439;48.092;11.842;2024-01-11T12:45:31;96299.69;;;-0.35;62.14
30682;BME280;17439;48.092;11.842;2024-01-11T12:47:59;96318.91;;;-0.27;64.57
30682;BME280;17439;48.092;11.842;2024-01-11T12:50:27;96309.84;;;-0.26;63.79
30682;BME280;17439;48.092;11.842;2024-01-11T12:53:11;96314.06;;;-0.18;63.84